sensor_id;sensor_type;location;lat;lon;timestamp;temperature;humidity
51783;DHT22;37845;53.196;5.638;2023-02-17T00:00:24;8.90;99.90
51783;DHT22;37845;53.196;5.638;2023-02-17T00:02:54;8.90;99.90
51783;DHT22;37845;53.196;5.638;2023-02-17T00:05:19;8.90;99.90
51783;DHT22;37845;53.196;5.638;2023-02-17T00:07:45;8.90;99.90
51783;DHT22;37845;53.196;5.638;2023-02-17T00:10:10;8.90;99.90
51783;DHT22;37845;53.196;5.638;2023-02-17T00:12:36;9.00;99.90
51783;DHT22;37845;53.196;5.638;2023-02-17T00:15:02;8.90;99.90
51783;DHT22;37845;53.196;5.638;2023-02-17T00:17:28;8.90;99.90
51783;DHT22;37845;53.196;5.638;2023-02-17T00:19:53;8.90;99.90
51783;DHT22;37845;53.196;5.638;2023-02-17T00:22:20;8.90;99.90
51783;DHT22;37845;53.196;5.638;2023-02-17T00:24:45;9.00;99.90
51783;DHT22;37845;53.196;5.638;2023-02-17T00:27:11;8.90;99.90
51783;DHT22;37845;53.196;5.638;2023-02-17T00:29:36;8.90;99.90
51783;DHT22;37845;53.196;5.638;2023-02-17T00:32:02;8.90;99.90
51783;DHT22;37845;53.196;5.638;2023-02-17T00:34:28;9.10;99.90
51783;DHT22;37845;53.196;5.638;2023-02-17T00:36:53;8.90;99.90
51783;DHT22;37845;53.196;5.638;2023-02-17T00:39:19;8.90;99.90
51783;DHT22;37845;53.196;5.638;2023-02-17T00:41:44;8.90;99.90
51783;DHT22;37845;53.196;5.638;2023-02-17T00:44:16;9.40;99.90
51783;DHT22;37845;53.196;5.638;2023-02-17T00:46:43;8.90;99.90
51783;DHT22;37845;53.196;5.638;2023-02-17T00:49:13;8.90;99.90
51783;DHT22;37845;53.196;5.638;2023-02-17T00:51:39;8.90;99.90
51783;DHT22;37845;53.196;5.638;2023-02-17T00:54:05;8.90;99.90
51783;DHT22;37845;53.196;5.638;2023-02-17T00:56:30;8.90;99.90
51783;DHT22;37845;53.196;5.638;2023-02-17T00:58:56;8.90;99.90
51783;DHT22;37845;53.196;5.638;2023-02-17T01:01:21;9.20;99.90
51783;DHT22;37845;53.196;5.638;2023-02-17T01:03:47;9.00;99.90
51783;DHT22;37845;53.196;5.638;2023-02-17T01:06:17;8.90;99.90
51783;DHT22;37845;53.196;5.638;2023-02-17T01:08:46;9.40;99.90
51783;DHT22;37845;53.196;5.638;2023-02-17T01:11:22;8.90;99.90
51783;DHT22;37845;53.196;5.638;2023-02-17T01:13:48;8.80;99.90
51783;DHT22;37845;53.196;5.638;2023-02-17T01:16:25;8.90;99.90
51783;DHT22;37845;53.196;5.638;2023-02-17T01:18:51;8.80;99.90
51783;DHT22;37845;53.196;5.638;2023-02-17T01:21:17;8.80;99.90
51783;DHT22;37845;53.196;5.638;2023-02-17T01:23:43;8.80;99.90
51783;DHT22;37845;53.196;5.638;2023-02-17T01:26:15;8.90;99.90
51783;DHT22;37845;53.196;5.638;2023-02-17T01:28:41;8.90;99.90
51783;DHT22;37845;53.196;5.638;2023-02-17T01:31:07;8.90;99.90
51783;DHT22;37845;53.196;5.638;2023-02-17T01:33:33;9.00;99.90
51783;DHT22;37845;53.196;5.638;2023-02-17T01:36:02;9.00;99.90
51783;DHT22;37845;53.196;5.638;2023-02-17T01:38:28;9.00;99.90
51783;DHT22;37845;53.196;5.638;2023-02-17T01:40:54;9.00;99.90
51783;DHT22;37845;53.196;5.638;2023-02-17T01:43:20;9.00;99.90
51783;DHT22;37845;53.196;5.638;2023-02-17T01:45:48;9.00;99.90
51783;DHT22;37845;53.196;5.638;2023-02-17T01:48:15;9.00;99.90
51783;DHT22;37845;53.196;5.638;2023-02-17T01:50:44;9.00;99.90
51783;DHT22;37845;53.196;5.638;2023-02-17T01:53:11;9.00;99.90
51783;DHT22;37845;53.196;5.638;2023-02-17T01:55:38;9.00;99.90
51783;DHT22;37845;53.196;5.638;2023-02-17T01:58:05;9.00;99.90
51783;DHT22;37845;53.196;5.638;2023-02-17T02:00:32;9.00;99.90
51783;DHT22;37845;53.196;5.638;2023-02-17T02:02:58;8.90;99.90
51783;DHT22;37845;53.196;5.638;2023-02-17T02:05:25;10.10;99.90
51783;DHT22;37845;53.196;5.638;2023-02-17T02:07:50;9.90;99.90
51783;DHT22;37845;53.196;5.638;2023-02-17T02:10:16;8.90;99.90
51783;DHT22;37845;53.196;5.638;2023-02-17T02:12:42;9.00;99.90
51783;DHT22;37845;53.196;5.638;2023-02-17T02:33:23;8.90;99.90
51783;DHT22;37845;53.196;5.638;2023-02-17T02:35:54;9.90;99.90
51783;DHT22;37845;53.196;5.638;2023-02-17T02:38:33;8.90;99.90
51783;DHT22;37845;53.196;5.638;2023-02-17T02:41:03;8.90;99.90
51783;DHT22;37845;53.196;5.638;2023-02-17T02:43:31;9.00;99.90
51783;DHT22;37845;53.196;5.638;2023-02-17T02:45:57;8.90;99.90
51783;DHT22;37845;53.196;5.638;2023-02-17T02:48:23;10.00;99.90
51783;DHT22;37845;53.196;5.638;2023-02-17T02:58:36;9.00;99.90
51783;DHT22;37845;53.196;5.638;2023-02-17T03:03:36;7.70;99.90
51783;DHT22;37845;53.196;5.638;2023-02-17T03:06:11;8.90;99.90
51783;DHT22;37845;53.196;5.638;2023-02-17T03:08:45;8.90;99.90
51783;DHT22;37845;53.196;5.638;2023-02-17T03:11:12;8.90;99.90
51783;DHT22;37845;53.196;5.638;2023-02-17T03:13:37;9.80;99.90
51783;DHT22;37845;53.196;5.638;2023-02-17T03:16:05;9.20;99.90
51783;DHT22;37845;53.196;5.638;2023-02-17T03:18:32;9.00;99.90
51783;DHT22;37845;53.196;5.638;2023-02-17T03:21:01;8.90;99.90
51783;DHT22;37845;53.196;5.638;2023-02-17T03:23:28;8.90;99.90
51783;DHT22;37845;53.196;5.638;2023-02-17T03:25:53;9.00;99.90
51783;DHT22;37845;53.196;5.638;2023-02-17T03:28:19;9.00;99.90
51783;DHT22;37845;53.196;5.638;2023-02-17T03:30:45;9.00;99.90
51783;DHT22;37845;53.196;5.638;2023-02-17T03:33:13;9.00;99.90
51783;DHT22;37845;53.196;5.638;2023-02-17T03:35:39;9.30;99.90
51783;DHT22;37845;53.196;5.638;2023-02-17T03:38:05;9.00;99.90
51783;DHT22;37845;53.196;5.638;2023-02-17T03:40:30;9.00;99.90
51783;DHT22;37845;53.196;5.638;2023-02-17T03:42:56;9.00;99.90
51783;DHT22;37845;53.196;5.638;2023-02-17T03:45:22;8.90;99.90
51783;DHT22;37845;53.196;5.638;2023-02-17T03:47:47;9.00;99.90
51783;DHT22;37845;53.196;5.638;2023-02-17T03:50:13;9.00;99.90
51783;DHT22;37845;53.196;5.638;2023-02-17T03:52:39;9.00;99.90
51783;DHT22;37845;53.196;5.638;2023-02-17T03:55:04;9.00;99.90
51783;DHT22;37845;53.196;5.638;2023-02-17T03:57:38;8.90;99.90
51783;DHT22;37845;53.196;5.638;2023-02-17T04:00:07;9.10;99.90
51783;DHT22;37845;53.196;5.638;2023-02-17T04:02:33;8.90;99.90
51783;DHT22;37845;53.196;5.638;2023-02-17T04:04:59;8.90;99.90
51783;DHT22;37845;53.196;5.638;2023-02-17T04:07:25;8.90;99.90
51783;DHT22;37845;53.196;5.638;2023-02-17T04:09:50;8.90;99.90
51783;DHT22;37845;53.196;5.638;2023-02-17T04:12:19;8.80;99.90
51783;DHT22;37845;53.196;5.638;2023-02-17T04:14:45;8.40;99.90
51783;DHT22;37845;53.196;5.638;2023-02-17T04:17:10;8.90;99.90
51783;DHT22;37845;53.196;5.638;2023-02-17T04:19:36;8.90;99.90
51783;DHT22;37845;53.196;5.638;2023-02-17T04:22:02;8.90;99.90
51783;DHT22;37845;53.196;5.638;2023-02-17T04:24:28;9.00;99.90
51783;DHT22;37845;53.196;5.638;2023-02-17T04:26:56;9.00;99.90
51783;DHT22;37845;53.196;5.638;2023-02-17T04:29:31;9.00;99.90
51783;DHT22;37845;53.196;5.638;2023-02-17T04:31:57;9.20;99.90
51783;DHT22;37845;53.196;5.638;2023-02-17T04:34:22;9.00;99.90
51783;DHT22;37845;53.196;5.638;2023-02-17T04:36:48;9.00;99.90
51783;DHT22;37845;53.196;5.638;2023-02-17T04:39:13;9.00;99.90
51783;DHT22;37845;53.196;5.638;2023-02-17T04:41:39;9.00;99.90
51783;DHT22;37845;53.196;5.638;2023-02-17T04:44:04;9.00;99.90
51783;DHT22;37845;53.196;5.638;2023-02-17T04:46:30;9.00;99.90
51783;DHT22;37845;53.196;5.638;2023-02-17T04:48:56;9.40;99.90
51783;DHT22;37845;53.196;5.638;2023-02-17T04:51:22;9.00;99.90
51783;DHT22;37845;53.196;5.638;2023-02-17T04:53:55;9.00;99.90
51783;DHT22;37845;53.196;5.638;2023-02-17T04:56:20;8.30;99.90
51783;DHT22;37845;53.196;5.638;2023-02-17T04:58:46;9.10;99.90
51783;DHT22;37845;53.196;5.638;2023-02-17T05:01:12;9.00;99.90
51783;DHT22;37845;53.196;5.638;2023-02-17T05:03:40;8.10;99.90
51783;DHT22;37845;53.196;5.638;2023-02-17T05:06:06;9.10;99.90
51783;DHT22;37845;53.196;5.638;2023-02-17T05:08:32;9.10;99.90
51783;DHT22;37845;53.196;5.638;2023-02-17T05:10:57;9.10;99.90
51783;DHT22;37845;53.196;5.638;2023-02-17T05:13:23;9.10;99.90
51783;DHT22;37845;53.196;5.638;2023-02-17T05:15:48;9.10;99.90
51783;DHT22;37845;53.196;5.638;2023-02-17T05:18:14;9.10;99.90
51783;DHT22;37845;53.196;5.638;2023-02-17T05:20:40;9.10;99.90
51783;DHT22;37845;53.196;5.638;2023-02-17T05:23:05;9.10;99.90
51783;DHT22;37845;53.196;5.638;2023-02-17T05:25:31;9.10;99.90
51783;DHT22;37845;53.196;5.638;2023-02-17T05:27:57;9.10;99.90
51783;DHT22;37845;53.196;5.638;2023-02-17T05:30:23;9.10;99.90
51783;DHT22;37845;53.196;5.638;2023-02-17T05:32:48;9.10;99.90
51783;DHT22;37845;53.196;5.638;2023-02-17T05:35:14;9.10;99.90
51783;DHT22;37845;53.196;5.638;2023-02-17T05:37:39;9.20;99.90
51783;DHT22;37845;53.196;5.638;2023-02-17T05:40:06;9.20;99.90
51783;DHT22;37845;53.196;5.638;2023-02-17T05:42:31;9.10;99.90
51783;DHT22;37845;53.196;5.638;2023-02-17T05:44:57;9.10;99.90
51783;DHT22;37845;53.196;5.638;2023-02-17T05:47:23;9.10;99.90
51783;DHT22;37845;53.196;5.638;2023-02-17T05:49:48;9.10;99.90
51783;DHT22;37845;53.196;5.638;2023-02-17T05:52:14;9.50;99.90
51783;DHT22;37845;53.196;5.638;2023-02-17T05:54:41;9.20;99.90
51783;DHT22;37845;53.196;5.638;2023-02-17T05:57:06;9.10;99.90
51783;DHT22;37845;53.196;5.638;2023-02-17T05:59:32;9.10;99.90
51783;DHT22;37845;53.196;5.638;2023-02-17T06:01:57;9.40;99.90
51783;DHT22;37845;53.196;5.638;2023-02-17T06:04:23;8.90;99.90
51783;DHT22;37845;53.196;5.638;2023-02-17T06:06:48;9.20;99.90
51783;DHT22;37845;53.196;5.638;2023-02-17T06:09:14;9.20;99.90
51783;DHT22;37845;53.196;5.638;2023-02-17T06:11:40;9.20;99.90
51783;DHT22;37845;53.196;5.638;2023-02-17T06:14:05;9.20;99.90
51783;DHT22;37845;53.196;5.638;2023-02-17T06:16:31;9.30;99.90
51783;DHT22;37845;53.196;5.638;2023-02-17T06:18:56;9.30;99.90
51783;DHT22;37845;53.196;5.638;2023-02-17T06:21:24;9.30;99.90
51783;DHT22;37845;53.196;5.638;2023-02-17T06:23:50;9.30;99.90
51783;DHT22;37845;53.196;5.638;2023-02-17T06:26:15;10.00;99.90
51783;DHT22;37845;53.196;5.638;2023-02-17T06:28:42;9.40;99.90
51783;DHT22;37845;53.196;5.638;2023-02-17T06:31:08;9.40;99.90
51783;DHT22;37845;53.196;5.638;2023-02-17T06:33:34;9.40;99.90
51783;DHT22;37845;53.196;5.638;2023-02-17T06:35:59;9.10;99.90
51783;DHT22;37845;53.196;5.638;2023-02-17T06:38:25;9.40;99.90
51783;DHT22;37845;53.196;5.638;2023-02-17T06:40:52;9.40;99.90
51783;DHT22;37845;53.196;5.638;2023-02-17T06:43:18;9.40;99.90
51783;DHT22;37845;53.196;5.638;2023-02-17T06:45:49;9.40;99.90
51783;DHT22;37845;53.196;5.638;2023-02-17T06:48:17;9.40;99.90
51783;DHT22;37845;53.196;5.638;2023-02-17T06:50:48;9.40;99.90
51783;DHT22;37845;53.196;5.638;2023-02-17T06:53:14;9.50;99.90
51783;DHT22;37845;53.196;5.638;2023-02-17T06:55:42;9.40;99.90
51783;DHT22;37845;53.196;5.638;2023-02-17T06:58:07;9.50;99.90
51783;DHT22;37845;53.196;5.638;2023-02-17T07:00:36;9.40;99.90
51783;DHT22;37845;53.196;5.638;2023-02-17T07:03:01;9.50;99.90
51783;DHT22;37845;53.196;5.638;2023-02-17T07:05:27;9.40;99.90
51783;DHT22;37845;53.196;5.638;2023-02-17T07:07:55;9.40;99.90
51783;DHT22;37845;53.196;5.638;2023-02-17T07:10:21;8.60;99.90
51783;DHT22;37845;53.196;5.638;2023-02-17T07:12:47;9.40;99.90
51783;DHT22;37845;53.196;5.638;2023-02-17T07:15:12;9.50;99.90
51783;DHT22;37845;53.196;5.638;2023-02-17T07:17:39;9.50;99.90
51783;DHT22;37845;53.196;5.638;2023-02-17T07:20:05;9.50;99.90
51783;DHT22;37845;53.196;5.638;2023-02-17T07:22:30;9.50;99.90
51783;DHT22;37845;53.196;5.638;2023-02-17T07:24:56;9.50;99.90
51783;DHT22;37845;53.196;5.638;2023-02-17T07:27:22;9.50;99.90
51783;DHT22;37845;53.196;5.638;2023-02-17T07:29:52;9.50;99.90
51783;DHT22;37845;53.196;5.638;2023-02-17T07:32:23;9.50;99.90
51783;DHT22;37845;53.196;5.638;2023-02-17T07:34:49;9.60;99.90
51783;DHT22;37845;53.196;5.638;2023-02-17T07:37:14;9.60;99.90
51783;DHT22;37845;53.196;5.638;2023-02-17T07:39:40;9.50;99.90
51783;DHT22;37845;53.196;5.638;2023-02-17T07:42:06;9.50;99.90
51783;DHT22;37845;53.196;5.638;2023-02-17T07:44:31;9.50;99.90
51783;DHT22;37845;53.196;5.638;2023-02-17T07:46:57;9.50;99.90
51783;DHT22;37845;53.196;5.638;2023-02-17T07:49:28;9.60;99.90
51783;DHT22;37845;53.196;5.638;2023-02-17T07:51:53;9.60;99.90
51783;DHT22;37845;53.196;5.638;2023-02-17T07:54:19;9.60;99.90
51783;DHT22;37845;53.196;5.638;2023-02-17T07:56:45;9.60;99.90
51783;DHT22;37845;53.196;5.638;2023-02-17T07:59:11;9.60;99.90
51783;DHT22;37845;53.196;5.638;2023-02-17T08:01:37;9.70;99.90
51783;DHT22;37845;53.196;5.638;2023-02-17T08:04:02;9.60;99.90
51783;DHT22;37845;53.196;5.638;2023-02-17T08:06:28;9.70;99.90
51783;DHT22;37845;53.196;5.638;2023-02-17T08:08:55;9.70;99.90
51783;DHT22;37845;53.196;5.638;2023-02-17T08:11:40;9.70;99.90
51783;DHT22;37845;53.196;5.638;2023-02-17T08:14:25;9.70;99.90
51783;DHT22;37845;53.196;5.638;2023-02-17T08:16:50;9.70;99.90
51783;DHT22;37845;53.196;5.638;2023-02-17T08:19:21;9.70;99.90
51783;DHT22;37845;53.196;5.638;2023-02-17T08:21:47;9.20;99.90
51783;DHT22;37845;53.196;5.638;2023-02-17T08:24:13;9.70;99.90
51783;DHT22;37845;53.196;5.638;2023-02-17T08:26:40;10.20;99.90
51783;DHT22;37845;53.196;5.638;2023-02-17T08:29:11;9.70;99.90
51783;DHT22;37845;53.196;5.638;2023-02-17T08:31:37;9.70;99.90
51783;DHT22;37845;53.196;5.638;2023-02-17T08:34:03;9.70;99.90
51783;DHT22;37845;53.196;5.638;2023-02-17T08:36:29;9.70;99.90
51783;DHT22;37845;53.196;5.638;2023-02-17T08:38:55;9.80;99.90
51783;DHT22;37845;53.196;5.638;2023-02-17T08:41:26;9.80;99.90
51783;DHT22;37845;53.196;5.638;2023-02-17T08:43:56;9.80;99.90
51783;DHT22;37845;53.196;5.638;2023-02-17T08:46:22;9.90;99.90
51783;DHT22;37845;53.196;5.638;2023-02-17T08:48:48;9.80;99.90
51783;DHT22;37845;53.196;5.638;2023-02-17T08:51:14;9.80;99.90
51783;DHT22;37845;53.196;5.638;2023-02-17T08:53:40;9.80;99.90
51783;DHT22;37845;53.196;5.638;2023-02-17T08:56:05;9.80;99.90
51783;DHT22;37845;53.196;5.638;2023-02-17T08:58:31;9.90;99.90
51783;DHT22;37845;53.196;5.638;2023-02-17T09:00:57;9.80;99.90
51783;DHT22;37845;53.196;5.638;2023-02-17T09:03:23;9.90;99.90
51783;DHT22;37845;53.196;5.638;2023-02-17T09:05:51;9.90;99.90
51783;DHT22;37845;53.196;5.638;2023-02-17T09:08:17;9.90;99.90
51783;DHT22;37845;53.196;5.638;2023-02-17T09:10:43;9.90;99.90
51783;DHT22;37845;53.196;5.638;2023-02-17T09:13:08;9.90;99.90
51783;DHT22;37845;53.196;5.638;2023-02-17T09:15:34;9.90;99.90
51783;DHT22;37845;53.196;5.638;2023-02-17T09:18:00;10.00;99.90
51783;DHT22;37845;53.196;5.638;2023-02-17T09:20:25;10.00;99.90
51783;DHT22;37845;53.196;5.638;2023-02-17T09:22:51;10.00;99.90
51783;DHT22;37845;53.196;5.638;2023-02-17T09:25:17;10.00;99.90
51783;DHT22;37845;53.196;5.638;2023-02-17T09:27:43;10.00;99.90
51783;DHT22;37845;53.196;5.638;2023-02-17T09:30:08;10.00;99.90
51783;DHT22;37845;53.196;5.638;2023-02-17T09:32:34;10.00;99.90
51783;DHT22;37845;53.196;5.638;2023-02-17T09:35:00;10.00;99.90
51783;DHT22;37845;53.196;5.638;2023-02-17T09:37:27;10.00;99.90
51783;DHT22;37845;53.196;5.638;2023-02-17T09:39:53;10.00;99.90
51783;DHT22;37845;53.196;5.638;2023-02-17T09:42:19;10.00;99.90
51783;DHT22;37845;53.196;5.638;2023-02-17T09:44:52;10.00;99.90
51783;DHT22;37845;53.196;5.638;2023-02-17T09:47:24;10.00;99.90
51783;DHT22;37845;53.196;5.638;2023-02-17T09:49:55;10.00;99.90
51783;DHT22;37845;53.196;5.638;2023-02-17T09:52:26;10.10;99.90
51783;DHT22;37845;53.196;5.638;2023-02-17T09:55:05;10.10;99.90
51783;DHT22;37845;53.196;5.638;2023-02-17T09:57:36;10.10;99.90
51783;DHT22;37845;53.196;5.638;2023-02-17T10:00:08;10.10;99.90
51783;DHT22;37845;53.196;5.638;2023-02-17T10:02:39;10.10;99.90
51783;DHT22;37845;53.196;5.638;2023-02-17T10:05:09;10.10;99.90
51783;DHT22;37845;53.196;5.638;2023-02-17T10:07:53;10.10;99.90
51783;DHT22;37845;53.196;5.638;2023-02-17T10:10:21;10.10;99.90
51783;DHT22;37845;53.196;5.638;2023-02-17T10:12:51;10.10;99.90
51783;DHT22;37845;53.196;5.638;2023-02-17T10:15:23;10.10;99.90
51783;DHT22;37845;53.196;5.638;2023-02-17T10:18:13;10.10;99.90
51783;DHT22;37845;53.196;5.638;2023-02-17T10:20:38;10.10;99.90
51783;DHT22;37845;53.196;5.638;2023-02-17T10:25:40;10.10;99.90
51783;DHT22;37845;53.196;5.638;2023-02-17T10:28:09;10.10;99.90
51783;DHT22;37845;53.196;5.638;2023-02-17T10:35:49;10.00;99.90
51783;DHT22;37845;53.196;5.638;2023-02-17T10:38:38;10.00;99.90
51783;DHT22;37845;53.196;5.638;2023-02-17T10:41:02;10.00;99.90
51783;DHT22;37845;53.196;5.638;2023-02-17T10:43:30;10.10;99.90
51783;DHT22;37845;53.196;5.638;2023-02-17T10:45:58;10.20;99.90
51783;DHT22;37845;53.196;5.638;2023-02-17T10:51:24;10.10;99.90
51783;DHT22;37845;53.196;5.638;2023-02-17T10:54:09;10.10;99.90
51783;DHT22;37845;53.196;5.638;2023-02-17T10:56:38;10.10;99.90
51783;DHT22;37845;53.196;5.638;2023-02-17T10:59:10;10.10;99.90
51783;DHT22;37845;53.196;5.638;2023-02-17T11:01:38;10.10;99.90
51783;DHT22;37845;53.196;5.638;2023-02-17T11:04:05;10.50;99.90
51783;DHT22;37845;53.196;5.638;2023-02-17T11:06:31;10.10;99.90
51783;DHT22;37845;53.196;5.638;2023-02-17T11:09:04;10.10;99.90
51783;DHT22;37845;53.196;5.638;2023-02-17T11:11:31;10.20;99.90
51783;DHT22;37845;53.196;5.638;2023-02-17T11:14:20;10.20;99.90
51783;DHT22;37845;53.196;5.638;2023-02-17T11:16:44;10.30;99.90
51783;DHT22;37845;53.196;5.638;2023-02-17T11:19:19;10.30;99.90
51783;DHT22;37845;53.196;5.638;2023-02-17T11:21:45;10.30;99.90
51783;DHT22;37845;53.196;5.638;2023-02-17T11:24:11;10.30;99.90
51783;DHT22;37845;53.196;5.638;2023-02-17T11:26:37;10.40;99.90
51783;DHT22;37845;53.196;5.638;2023-02-17T11:29:17;10.50;99.90
51783;DHT22;37845;53.196;5.638;2023-02-17T11:31:56;10.60;99.90
51783;DHT22;37845;53.196;5.638;2023-02-17T11:34:22;10.60;99.90
51783;DHT22;37845;53.196;5.638;2023-02-17T11:36:56;10.60;99.90
51783;DHT22;37845;53.196;5.638;2023-02-17T11:39:23;10.60;99.90
51783;DHT22;37845;53.196;5.638;2023-02-17T11:41:49;10.60;99.90
51783;DHT22;37845;53.196;5.638;2023-02-17T11:47:31;10.70;99.90
51783;DHT22;37845;53.196;5.638;2023-02-17T11:50:21;10.70;99.90
51783;DHT22;37845;53.196;5.638;2023-02-17T11:55:25;9.50;99.90
51783;DHT22;37845;53.196;5.638;2023-02-17T11:58:00;10.70;99.90
51783;DHT22;37845;53.196;5.638;2023-02-17T12:05:29;10.60;99.90
51783;DHT22;37845;53.196;5.638;2023-02-17T12:08:08;10.70;99.90
51783;DHT22;37845;53.196;5.638;2023-02-17T12:13:37;10.80;99.90
51783;DHT22;37845;53.196;5.638;2023-02-17T12:18:36;10.80;99.90
51783;DHT22;37845;53.196;5.638;2023-02-17T12:21:08;10.80;99.90
51783;DHT22;37845;53.196;5.638;2023-02-17T12:23:49;10.90;99.90
51783;DHT22;37845;53.196;5.638;2023-02-17T12:36:48;10.80;99.90
51783;DHT22;37845;53.196;5.638;2023-02-17T12:41:50;10.80;99.90
51783;DHT22;37845;53.196;5.638;2023-02-17T12:44:18;10.80;99.90
51783;DHT22;37845;53.196;5.638;2023-02-17T12:46:46;10.80;99.90
51783;DHT22;37845;53.196;5.638;2023-02-17T12:49:20;10.90;99.90
51783;DHT22;37845;53.196;5.638;2023-02-17T12:51:48;10.90;99.90
51783;DHT22;37845;53.196;5.638;2023-02-17T12:56:48;11.00;99.90
51783;DHT22;37845;53.196;5.638;2023-02-17T12:59:18;11.10;99.90
51783;DHT22;37845;53.196;5.638;2023-02-17T13:01:57;11.30;99.90
51783;DHT22;37845;53.196;5.638;2023-02-17T13:04:25;11.30;99.90
51783;DHT22;37845;53.196;5.638;2023-02-17T13:06:52;11.30;99.90
51783;DHT22;37845;53.196;5.638;2023-02-17T13:11:44;11.30;99.90
51783;DHT22;37845;53.196;5.638;2023-02-17T13:14:27;11.30;99.90
51783;DHT22;37845;53.196;5.638;2023-02-17T13:16:53;11.30;99.90
51783;DHT22;37845;53.196;5.638;2023-02-17T13:19:28;11.40;99.90
51783;DHT22;37845;53.196;5.638;2023-02-17T13:21:55;11.40;99.90
51783;DHT22;37845;53.196;5.638;2023-02-17T13:26:56;11.40;99.90
51783;DHT22;37845;53.196;5.638;2023-02-17T13:31:51;11.40;99.90
51783;DHT22;37845;53.196;5.638;2023-02-17T13:36:55;11.50;99.90
51783;DHT22;37845;53.196;5.638;2023-02-17T13:41:56;11.60;99.90
51783;DHT22;37845;53.196;5.638;2023-02-17T13:44:27;11.60;99.90
51783;DHT22;37845;53.196;5.638;2023-02-17T13:47:04;11.70;99.90
51783;DHT22;37845;53.196;5.638;2023-02-17T13:49:31;11.70;99.90
51783;DHT22;37845;53.196;5.638;2023-02-17T13:52:19;11.80;99.90
51783;DHT22;37845;53.196;5.638;2023-02-17T13:55:04;11.90;99.90
51783;DHT22;37845;53.196;5.638;2023-02-17T13:57:31;12.00;99.90
51783;DHT22;37845;53.196;5.638;2023-02-17T14:02:32;11.90;99.90
51783;DHT22;37845;53.196;5.638;2023-02-17T14:04:58;11.80;99.90
51783;DHT22;37845;53.196;5.638;2023-02-17T14:07:24;11.70;99.90
51783;DHT22;37845;53.196;5.638;2023-02-17T14:09:53;11.70;99.90
51783;DHT22;37845;53.196;5.638;2023-02-17T14:12:22;11.60;99.90
51783;DHT22;37845;53.196;5.638;2023-02-17T14:14:48;11.50;99.90
51783;DHT22;37845;53.196;5.638;2023-02-17T14:17:25;11.50;99.90
51783;DHT22;37845;53.196;5.638;2023-02-17T14:19:51;11.50;99.90
51783;DHT22;37845;53.196;5.638;2023-02-17T14:25:06;11.40;99.90
51783;DHT22;37845;53.196;5.638;2023-02-17T14:27:45;11.40;99.90
51783;DHT22;37845;53.196;5.638;2023-02-17T14:30:12;11.40;99.90
51783;DHT22;37845;53.196;5.638;2023-02-17T14:32:38;11.40;99.90
51783;DHT22;37845;53.196;5.638;2023-02-17T14:37:39;11.30;99.90
51783;DHT22;37845;53.196;5.638;2023-02-17T14:40:05;11.20;99.90
51783;DHT22;37845;53.196;5.638;2023-02-17T14:42:32;11.20;99.90
51783;DHT22;37845;53.196;5.638;2023-02-17T14:44:57;11.10;99.90
51783;DHT22;37845;53.196;5.638;2023-02-17T14:47:23;11.00;99.90
51783;DHT22;37845;53.196;5.638;2023-02-17T14:49:48;11.00;99.90
51783;DHT22;37845;53.196;5.638;2023-02-17T14:52:18;10.90;99.90
51783;DHT22;37845;53.196;5.638;2023-02-17T14:54:44;10.90;99.90
51783;DHT22;37845;53.196;5.638;2023-02-17T14:57:11;10.90;99.90
51783;DHT22;37845;53.196;5.638;2023-02-17T14:59:38;10.80;99.90
51783;DHT22;37845;53.196;5.638;2023-02-17T15:02:11;10.80;99.90
51783;DHT22;37845;53.196;5.638;2023-02-17T15:04:38;10.80;99.90
51783;DHT22;37845;53.196;5.638;2023-02-17T15:07:03;10.70;99.90
51783;DHT22;37845;53.196;5.638;2023-02-17T15:09:29;10.70;99.90
51783;DHT22;37845;53.196;5.638;2023-02-17T15:11:56;10.60;99.90
51783;DHT22;37845;53.196;5.638;2023-02-17T15:14:24;10.70;99.90
51783;DHT22;37845;53.196;5.638;2023-02-17T15:16:50;10.60;99.90
51783;DHT22;37845;53.196;5.638;2023-02-17T15:19:16;10.60;99.90
51783;DHT22;37845;53.196;5.638;2023-02-17T15:21:43;10.50;99.90
51783;DHT22;37845;53.196;5.638;2023-02-17T15:24:52;10.50;99.90
51783;DHT22;37845;53.196;5.638;2023-02-17T15:26:59;10.50;99.90
51783;DHT22;37845;53.196;5.638;2023-02-17T15:29:25;10.50;99.90
51783;DHT22;37845;53.196;5.638;2023-02-17T15:31:54;10.40;99.90
51783;DHT22;37845;53.196;5.638;2023-02-17T15:34:21;10.40;99.90
51783;DHT22;37845;53.196;5.638;2023-02-17T15:36:47;10.40;99.90
51783;DHT22;37845;53.196;5.638;2023-02-17T15:39:14;10.40;99.90
51783;DHT22;37845;53.196;5.638;2023-02-17T15:41:41;10.30;99.90
51783;DHT22;37845;53.196;5.638;2023-02-17T15:44:17;10.30;99.90
51783;DHT22;37845;53.196;5.638;2023-02-17T15:46:43;10.30;99.90
51783;DHT22;37845;53.196;5.638;2023-02-17T15:49:11;10.20;99.90
51783;DHT22;37845;53.196;5.638;2023-02-17T15:51:37;10.20;99.90
51783;DHT22;37845;53.196;5.638;2023-02-17T15:54:02;10.20;99.90
51783;DHT22;37845;53.196;5.638;2023-02-17T15:56:35;10.20;99.90
51783;DHT22;37845;53.196;5.638;2023-02-17T15:59:07;10.20;99.90
51783;DHT22;37845;53.196;5.638;2023-02-17T16:01:33;10.20;99.90
51783;DHT22;37845;53.196;5.638;2023-02-17T16:03:59;10.10;99.90
51783;DHT22;37845;53.196;5.638;2023-02-17T16:06:25;10.10;99.90
51783;DHT22;37845;53.196;5.638;2023-02-17T16:08:51;10.00;99.90
51783;DHT22;37845;53.196;5.638;2023-02-17T16:11:17;9.90;99.90
51783;DHT22;37845;53.196;5.638;2023-02-17T16:13:44;9.90;99.90
51783;DHT22;37845;53.196;5.638;2023-02-17T16:16:23;9.80;99.90
51783;DHT22;37845;53.196;5.638;2023-02-17T16:18:49;9.70;99.90
51783;DHT22;37845;53.196;5.638;2023-02-17T16:21:15;9.70;99.90
51783;DHT22;37845;53.196;5.638;2023-02-17T16:23:41;9.90;99.90
51783;DHT22;37845;53.196;5.638;2023-02-17T16:26:14;9.60;99.90
51783;DHT22;37845;53.196;5.638;2023-02-17T16:28:45;9.60;99.90
51783;DHT22;37845;53.196;5.638;2023-02-17T16:31:10;9.60;99.90
51783;DHT22;37845;53.196;5.638;2023-02-17T16:33:36;9.60;99.90
51783;DHT22;37845;53.196;5.638;2023-02-17T16:36:01;9.60;99.90
51783;DHT22;37845;53.196;5.638;2023-02-17T16:38:27;9.50;99.90
51783;DHT22;37845;53.196;5.638;2023-02-17T16:41:10;9.40;99.90
51783;DHT22;37845;53.196;5.638;2023-02-17T16:43:36;10.30;99.90
51783;DHT22;37845;53.196;5.638;2023-02-17T16:46:02;8.20;99.90
51783;DHT22;37845;53.196;5.638;2023-02-17T16:48:32;9.30;99.90
51783;DHT22;37845;53.196;5.638;2023-02-17T16:50:59;8.50;99.90
51783;DHT22;37845;53.196;5.638;2023-02-17T16:53:25;9.20;99.90
51783;DHT22;37845;53.196;5.638;2023-02-17T16:55:54;9.20;99.90
51783;DHT22;37845;53.196;5.638;2023-02-17T16:58:21;9.30;99.90
51783;DHT22;37845;53.196;5.638;2023-02-17T17:00:48;9.20;99.90
51783;DHT22;37845;53.196;5.638;2023-02-17T17:03:13;9.20;99.90
51783;DHT22;37845;53.196;5.638;2023-02-17T17:05:39;9.50;99.90
51783;DHT22;37845;53.196;5.638;2023-02-17T17:08:16;9.20;99.90
51783;DHT22;37845;53.196;5.638;2023-02-17T17:10:42;9.10;99.90
51783;DHT22;37845;53.196;5.638;2023-02-17T17:13:11;9.20;99.90
51783;DHT22;37845;53.196;5.638;2023-02-17T17:15:49;9.10;99.90